createdAt,value
2022-10-30T00:02:47.987Z,100299.34
2022-10-30T00:05:53.307Z,100298.63
2022-10-30T00:08:57.517Z,100299.25
2022-10-30T00:12:02.115Z,100298.94
2022-10-30T00:15:09.116Z,100300.28
2022-10-30T00:18:13.483Z,100301.97
2022-10-30T00:21:18.662Z,100292.19
2022-10-30T00:24:22.664Z,100290.63
2022-10-30T00:27:26.816Z,100281.69
2022-10-30T00:30:32.415Z,100281.34
2022-10-30T00:33:36.634Z,100278.84
2022-10-30T00:36:41.497Z,100277.84
2022-10-30T00:39:45.593Z,100268.19
2022-10-30T00:42:49.712Z,100266.63
2022-10-30T00:45:55.578Z,100261.56
2022-10-30T00:49:04.878Z,100266.25
2022-10-30T00:52:12.093Z,100269.53
2022-10-30T00:55:21.404Z,100270.44
2022-10-30T00:58:31.294Z,100272.31
2022-10-30T01:01:40.601Z,100268.47
2022-10-30T01:04:46.533Z,100257.56
2022-10-30T01:07:50.687Z,100264.28
2022-10-30T01:10:54.882Z,100257.69
2022-10-30T01:14:02.176Z,100261.56
2022-10-30T01:17:31.851Z,100249.78
2022-10-30T01:20:55.722Z,100254.44
2022-10-30T01:24:20.306Z,100248.91
2022-10-30T01:27:37.700Z,100244.72
2022-10-30T01:30:59.256Z,100247.78
2022-10-30T01:34:18.912Z,100235.63
2022-10-30T01:37:30.393Z,100252.13
2022-10-30T01:40:35.280Z,100235.06
2022-10-30T01:43:41.068Z,100240.34
2022-10-30T01:47:01.234Z,100239.25
2022-10-30T01:50:23.382Z,100238.66
2022-10-30T01:53:42.682Z,100221.63
2022-10-30T01:56:56.811Z,100220.63
2022-10-30T02:00:06.220Z,100214.63
2022-10-30T02:03:17.365Z,100210.72
2022-10-30T02:06:24.141Z,100211.91
2022-10-30T02:09:28.533Z,100209.28
2022-10-30T02:12:33.586Z,100214.34
2022-10-30T02:15:38.595Z,100202.06
2022-10-30T02:18:43.105Z,100201.94
2022-10-30T02:21:48.903Z,100204.63
2022-10-30T02:24:53.285Z,100201.22
2022-10-30T02:28:01.217Z,100192.09
2022-10-30T02:31:08.268Z,100201.59
2022-10-30T02:34:12.552Z,100205.34
2022-10-30T02:37:18.287Z,100195.66
2022-10-30T02:40:22.434Z,100196.31
2022-10-30T02:43:26.724Z,100200.72
2022-10-30T02:46:30.894Z,100191.31
2022-10-30T02:49:35.086Z,100196.50
2022-10-30T02:52:40.520Z,100192.75
2022-10-30T02:55:45.966Z,100197.13
2022-10-30T02:58:50.121Z,100194.19
2022-10-30T03:01:55.635Z,100198.91
2022-10-30T03:04:59.756Z,100203.78
2022-10-30T03:08:05.663Z,100201.81
2022-10-30T03:11:11.607Z,100192.41
2022-10-30T03:14:15.794Z,100187.84
2022-10-30T03:17:20.534Z,100188.53
2022-10-30T03:20:26.200Z,100184.78
2022-10-30T03:23:32.087Z,100195.81
2022-10-30T03:26:38.094Z,100193.41
2022-10-30T03:29:44.007Z,100196.56
2022-10-30T03:32:49.623Z,100205.47
2022-10-30T03:35:54.186Z,100206.69
2022-10-30T03:38:59.736Z,100200.53
2022-10-30T03:42:04.789Z,100204.22
2022-10-30T03:45:10.196Z,100195.69
2022-10-30T03:48:14.448Z,100195.03
2022-10-30T03:51:19.327Z,100204.16
2022-10-30T03:54:25.720Z,100199.28
2022-10-30T03:57:30.071Z,100210.81
2022-10-30T04:00:45.594Z,100215.19
2022-10-30T04:03:50.020Z,100212.28
2022-10-30T04:06:54.824Z,100219.25
2022-10-30T04:10:01.412Z,100216.22
2022-10-30T04:13:08.952Z,100224.16
2022-10-30T04:16:17.468Z,100213.31
2022-10-30T04:19:22.843Z,100205.94
2022-10-30T04:22:27.319Z,100204.09
2022-10-30T04:25:35.521Z,100208.41
2022-10-30T04:28:39.673Z,100209.81
2022-10-30T04:31:44.943Z,100210.09
2022-10-30T04:34:51.173Z,100211.91
2022-10-30T04:37:55.873Z,100210.66
2022-10-30T04:41:01.468Z,100205.97
2022-10-30T04:44:21.033Z,100208.19
2022-10-30T04:47:25.388Z,100217.81
2022-10-30T04:50:29.912Z,100226.88
2022-10-30T04:53:34.367Z,100216.91
2022-10-30T04:56:44.671Z,100221.59
2022-10-30T04:59:49.234Z,100223.59
2022-10-30T05:02:53.524Z,100213.69
2022-10-30T05:06:00.724Z,100217.41
2022-10-30T05:09:05.694Z,100219.34
2022-10-30T05:12:19.738Z,100211.97
2022-10-30T05:15:30.692Z,100218.03
2022-10-30T05:18:35.371Z,100223.25
2022-10-30T05:21:39.720Z,100211.69
2022-10-30T05:24:43.791Z,100213.41
2022-10-30T05:27:49.692Z,100218.84
2022-10-30T05:30:56.174Z,100220.63
2022-10-30T05:34:26.949Z,100224.03
2022-10-30T05:37:35.105Z,100229.06
2022-10-30T05:40:42.024Z,100236.38
2022-10-30T05:43:48.431Z,100231.84
2022-10-30T05:46:52.842Z,100225.31
2022-10-30T05:50:11.868Z,100243.16
2022-10-30T05:53:23.674Z,100238.41
2022-10-30T05:56:29.332Z,100248.22
2022-10-30T05:59:36.403Z,100237.31
2022-10-30T06:02:40.883Z,100240.75
2022-10-30T06:05:47.640Z,100239.97
2022-10-30T06:08:52.639Z,100238.25
2022-10-30T06:12:19.240Z,100235.03
2022-10-30T06:15:45.212Z,100233.03
2022-10-30T06:18:49.533Z,100239.28
2022-10-30T06:21:55.171Z,100233.38
2022-10-30T06:25:10.910Z,100235.78
2022-10-30T06:28:38.440Z,100234.78
2022-10-30T06:31:44.274Z,100229.13
2022-10-30T06:34:49.669Z,100233.75
2022-10-30T06:37:56.589Z,100234.06
2022-10-30T06:41:01.784Z,100229.69
2022-10-30T06:44:26.263Z,100217.88
2022-10-30T06:47:36.712Z,100213.84
2022-10-30T06:50:40.968Z,100213.19
2022-10-30T06:53:45.500Z,100214.91
2022-10-30T06:57:08.163Z,100215.25
2022-10-30T07:00:30.575Z,100218.63
2022-10-30T07:03:54.613Z,100222.94
2022-10-30T07:07:00.269Z,100218.50
2022-10-30T07:10:05.464Z,100212.75
2022-10-30T07:13:29.962Z,100212.84
2022-10-30T07:16:42.169Z,100215.09
2022-10-30T07:19:51.173Z,100216.97
2022-10-30T07:22:55.749Z,100215.44
2022-10-30T07:26:04.180Z,100205.06
2022-10-30T07:29:14.880Z,100197.38
2022-10-30T07:32:20.850Z,100187.84
2022-10-30T07:35:44.901Z,100186.72
2022-10-30T07:39:07.308Z,100186.16
2022-10-30T07:42:34.897Z,100179.19
2022-10-30T07:45:58.020Z,100190.19
2022-10-30T07:49:29.610Z,100173.56
2022-10-30T07:52:43.908Z,100168.34
2022-10-30T07:55:48.240Z,100167.78
2022-10-30T07:59:24.879Z,100164.72
2022-10-30T08:02:36.448Z,100162.25
2022-10-30T08:05:56.642Z,100152.19
2022-10-30T08:09:12.483Z,100151.69
2022-10-30T08:12:17.621Z,100143.47
2022-10-30T08:15:22.540Z,100138.38
2022-10-30T08:18:27.390Z,100144.75
2022-10-30T08:21:31.823Z,100130.41
2022-10-30T08:24:42.337Z,100126.59
2022-10-30T08:27:57.130Z,100121.94
2022-10-30T08:31:04.333Z,100118.34
2022-10-30T08:34:28.400Z,100118.66
2022-10-30T08:37:33.572Z,100120.97
2022-10-30T08:40:39.178Z,100114.88
2022-10-30T08:43:44.594Z,100122.19
2022-10-30T08:46:48.867Z,100115.91
2022-10-30T08:49:55.469Z,100120.84
2022-10-30T08:53:04.611Z,100121.72
2022-10-30T08:56:12.125Z,100109.63
2022-10-30T08:59:36.539Z,100109.50
2022-10-30T09:02:41.609Z,100104.91
2022-10-30T09:06:04.018Z,100095.00
2022-10-30T09:09:26.509Z,100095.47
2022-10-30T09:12:35.837Z,100089.44
2022-10-30T09:15:39.945Z,100088.81
2022-10-30T09:18:44.345Z,100080.97
2022-10-30T09:21:49.196Z,100074.63
2022-10-30T09:24:53.899Z,100073.97
2022-10-30T09:28:19.545Z,100063.31
2022-10-30T09:31:55.840Z,100053.72
2022-10-30T09:35:02.380Z,100049.25
2022-10-30T09:38:17.646Z,100045.13
2022-10-30T09:41:41.058Z,100043.72
2022-10-30T09:45:23.344Z,100041.28
2022-10-30T09:48:37.920Z,100023.84
2022-10-30T09:52:23.700Z,100024.53
2022-10-30T09:55:36.395Z,100028.88
2022-10-30T09:58:48.826Z,100026.72
2022-10-30T10:02:03.003Z,100017.06
2022-10-30T10:05:17.277Z,100011.09
2022-10-30T10:08:34.137Z,100009.41
2022-10-30T10:12:00.698Z,100008.09
2022-10-30T10:15:13.245Z,100007.47
2022-10-30T10:18:24.852Z,100004.38
2022-10-30T10:21:31.008Z,99993.38
2022-10-30T10:24:38.598Z,99988.59
2022-10-30T10:27:55.569Z,99976.38
2022-10-30T10:31:12.620Z,99971.78
2022-10-30T10:34:37.638Z,99964.72
2022-10-30T10:37:50.814Z,99958.72
2022-10-30T10:41:01.308Z,99951.78
2022-10-30T10:44:27.318Z,99958.94
2022-10-30T10:47:51.038Z,99937.38
2022-10-30T10:51:00.432Z,99935.94
2022-10-30T10:54:12.169Z,99940.19
2022-10-30T10:57:26.067Z,99928.81
2022-10-30T11:00:32.258Z,99927.81
2022-10-30T11:03:47.485Z,99914.91
2022-10-30T11:06:56.028Z,99913.94
2022-10-30T11:10:00.945Z,99907.81
2022-10-30T11:13:05.195Z,99909.00
2022-10-30T11:16:20.345Z,99904.28
2022-10-30T11:19:25.287Z,99894.59
2022-10-30T11:22:36.176Z,99892.88
2022-10-30T11:25:40.855Z,99894.88
2022-10-30T11:28:50.514Z,99883.28
2022-10-30T11:32:03.478Z,99883.72
2022-10-30T11:35:14.925Z,99872.84
2022-10-30T11:38:22.539Z,99867.25
2022-10-30T11:41:28.008Z,99856.47
2022-10-30T11:44:36.663Z,99854.88
2022-10-30T11:47:41.182Z,99853.69
2022-10-30T11:50:51.330Z,99852.44
2022-10-30T11:53:57.109Z,99847.84
2022-10-30T11:57:01.139Z,99846.47
2022-10-30T12:00:09.975Z,99848.47
2022-10-30T12:03:31.148Z,99841.28
2022-10-30T12:06:35.480Z,99840.47
2022-10-30T12:09:50.134Z,99828.44
2022-10-30T12:12:54.465Z,99825.63
2022-10-30T12:16:14.679Z,99824.16
2022-10-30T12:19:21.435Z,99815.84
2022-10-30T12:22:29.063Z,99816.50
2022-10-30T12:25:39.895Z,99812.53
2022-10-30T12:28:55.280Z,99808.91
2022-10-30T12:32:04.008Z,99808.72
2022-10-30T12:35:18.805Z,99805.13
2022-10-30T12:38:28.629Z,99804.97
2022-10-30T12:41:41.378Z,99800.94
2022-10-30T12:44:49.009Z,99800.22
2022-10-30T12:47:59.134Z,99797.88
2022-10-30T12:51:19.758Z,99801.50
2022-10-30T12:54:35.670Z,99800.75
2022-10-30T12:57:48.346Z,99797.97
2022-10-30T13:00:59.238Z,99793.94
2022-10-30T13:04:11.221Z,99800.66
2022-10-30T13:07:21.807Z,99788.53
2022-10-30T13:10:31.318Z,99785.31
2022-10-30T13:13:39.895Z,99788.59
2022-10-30T13:16:44.307Z,99782.16
2022-10-30T13:19:49.116Z,99783.50
2022-10-30T13:22:59.197Z,99781.06
2022-10-30T13:26:13.597Z,99782.84
2022-10-30T13:29:25.821Z,99781.25
2022-10-30T13:32:40.809Z,99777.03
2022-10-30T13:35:50.099Z,99775.53
2022-10-30T13:39:01.595Z,99773.28
2022-10-30T13:42:22.406Z,99762.25
2022-10-30T13:45:56.919Z,99763.63
2022-10-30T13:49:15.611Z,99760.72
2022-10-30T13:52:22.811Z,99769.53
2022-10-30T13:55:29.919Z,99763.59
2022-10-30T13:58:43.404Z,99755.56
2022-10-30T14:02:01.564Z,99764.81
2022-10-30T14:05:16.968Z,99764.28
2022-10-30T14:08:32.396Z,99753.78
2022-10-30T14:11:36.585Z,99749.69
2022-10-30T14:14:49.477Z,99743.75
2022-10-30T14:18:33.470Z,99738.13
2022-10-30T14:21:46.053Z,99732.94
2022-10-30T14:24:50.277Z,99734.06
2022-10-30T14:27:58.380Z,99732.13
2022-10-30T14:31:04.699Z,99738.56
2022-10-30T14:34:43.056Z,99735.91
2022-10-30T14:37:58.777Z,99727.13
2022-10-30T14:41:36.280Z,99726.78
2022-10-30T14:45:01.634Z,99720.03
2022-10-30T14:48:14.435Z,99728.25
2022-10-30T14:51:24.946Z,99724.31
2022-10-30T14:54:35.245Z,99723.72
2022-10-30T14:57:48.675Z,99723.16
2022-10-30T15:00:57.457Z,99728.03
2022-10-30T15:04:18.975Z,99725.47
2022-10-30T15:07:34.527Z,99725.94
2022-10-30T15:10:43.752Z,99724.88
2022-10-30T15:13:51.687Z,99721.94
2022-10-30T15:16:56.135Z,99721.91
2022-10-30T15:20:02.916Z,99713.41
2022-10-30T15:23:13.927Z,99712.78
2022-10-30T15:26:22.041Z,99721.59
2022-10-30T15:29:30.681Z,99710.03
2022-10-30T15:32:34.901Z,99709.75
2022-10-30T15:35:39.409Z,99715.34
2022-10-30T15:38:45.051Z,99705.22
2022-10-30T15:41:51.958Z,99707.25
2022-10-30T15:44:56.159Z,99707.88
2022-10-30T15:48:04.472Z,99711.56
2022-10-30T15:51:13.925Z,99715.13
2022-10-30T15:54:21.635Z,99709.63
2022-10-30T15:57:57.387Z,99704.38
2022-10-30T16:00:59.417Z,99711.06
2022-10-30T16:04:03.919Z,99715.41
2022-10-30T16:07:19.758Z,99723.50
2022-10-30T16:10:28.077Z,99723.25
2022-10-30T16:13:32.956Z,99731.66
2022-10-30T16:16:37.128Z,99730.47
2022-10-30T16:19:47.176Z,99735.66
2022-10-30T16:22:51.506Z,99738.19
2022-10-30T16:25:59.517Z,99750.50
2022-10-30T16:29:18.694Z,99749.69
2022-10-30T16:32:27.323Z,99749.53
2022-10-30T16:35:31.810Z,99756.34
2022-10-30T16:38:38.551Z,99754.69
2022-10-30T16:41:44.846Z,99754.13
2022-10-30T16:44:49.555Z,99758.63
2022-10-30T16:47:59.041Z,99760.31
2022-10-30T16:51:06.128Z,99765.44
2022-10-30T16:54:22.247Z,99766.72
2022-10-30T16:57:30.650Z,99775.69
2022-10-30T17:00:36.821Z,99772.03
2022-10-30T17:03:44.190Z,99786.75
2022-10-30T17:06:48.409Z,99775.31
2022-10-30T17:09:57.211Z,99785.09
2022-10-30T17:13:31.882Z,99784.91
2022-10-30T17:16:39.315Z,99786.75
2022-10-30T17:19:51.459Z,99788.38
2022-10-30T17:23:09.240Z,99785.16
2022-10-30T17:26:15.038Z,99786.19
2022-10-30T17:29:47.229Z,99786.22
2022-10-30T17:32:56.241Z,99790.50
2022-10-30T17:36:00.899Z,99802.75
2022-10-30T17:39:06.371Z,99799.06
2022-10-30T17:42:13.330Z,99797.44
2022-10-30T17:45:19.751Z,99806.00
2022-10-30T17:48:27.748Z,99793.34
2022-10-30T17:51:32.894Z,99803.75
2022-10-30T17:54:38.446Z,99791.72
2022-10-30T17:57:43.239Z,99791.72
2022-10-30T18:00:49.704Z,99797.41
2022-10-30T18:03:56.960Z,99795.59
2022-10-30T18:07:01.676Z,99788.44
2022-10-30T18:10:09.728Z,99793.75
2022-10-30T18:13:15.648Z,99797.19
2022-10-30T18:16:22.466Z,99797.38
2022-10-30T18:19:26.955Z,99798.38
2022-10-30T18:22:31.186Z,99794.72
2022-10-30T18:25:38.702Z,99797.19
2022-10-30T18:28:43.799Z,99791.25
2022-10-30T18:31:49.540Z,99796.56
2022-10-30T18:34:53.749Z,99800.84
2022-10-30T18:37:58.446Z,99792.22
2022-10-30T18:41:02.716Z,99791.78
2022-10-30T18:44:11.846Z,99801.78
2022-10-30T18:47:18.656Z,99813.97
2022-10-30T18:50:25.755Z,99807.31
2022-10-30T18:53:34.977Z,99806.28
2022-10-30T18:56:47.275Z,99803.41
2022-10-30T18:59:51.900Z,99802.47
2022-10-30T19:02:58.679Z,99794.28
2022-10-30T19:06:03.491Z,99800.34
2022-10-30T19:09:07.849Z,99802.00
2022-10-30T19:12:12.659Z,99803.16
2022-10-30T19:15:19.498Z,99810.50
2022-10-30T19:18:26.319Z,99811.28
2022-10-30T19:21:34.877Z,99803.72
2022-10-30T19:24:39.179Z,99802.28
2022-10-30T19:27:43.480Z,99804.91
2022-10-30T19:30:50.642Z,99806.06
2022-10-30T19:33:57.829Z,99814.19
2022-10-30T19:37:01.945Z,99819.09
2022-10-30T19:40:21.185Z,99819.25
2022-10-30T19:43:25.459Z,99815.06
2022-10-30T19:46:29.769Z,99816.09
2022-10-30T19:49:35.419Z,99819.44
2022-10-30T19:52:39.586Z,99821.78
2022-10-30T19:55:45.008Z,99819.25
2022-10-30T19:58:50.462Z,99830.38
2022-10-30T20:01:54.850Z,99819.59
2022-10-30T20:05:03.479Z,99817.97
2022-10-30T20:08:12.741Z,99818.91
2022-10-30T20:11:16.870Z,99815.19
2022-10-30T20:14:23.797Z,99815.13
2022-10-30T20:17:28.096Z,99820.03
2022-10-30T20:20:37.205Z,99815.56
2022-10-30T20:23:41.757Z,99815.91
2022-10-30T20:26:46.308Z,99823.59
2022-10-30T20:29:50.568Z,99826.94
2022-10-30T20:32:55.126Z,99825.13
2022-10-30T20:36:00.819Z,99822.09
2022-10-30T20:39:05.203Z,99825.13
2022-10-30T20:42:14.296Z,99830.59
2022-10-30T20:45:21.250Z,99823.44
2022-10-30T20:48:25.548Z,99828.50
2022-10-30T20:51:31.939Z,99826.00
2022-10-30T20:54:36.121Z,99823.38
2022-10-30T20:57:40.911Z,99824.88
2022-10-30T21:00:45.316Z,99826.56
2022-10-30T21:03:50.739Z,99827.44
2022-10-30T21:06:59.301Z,99824.56
2022-10-30T21:10:03.592Z,99834.25
2022-10-30T21:13:09.815Z,99836.97
2022-10-30T21:16:14.637Z,99829.66
2022-10-30T21:19:19.043Z,99830.84
2022-10-30T21:22:24.772Z,99836.03
2022-10-30T21:25:29.129Z,99831.84
2022-10-30T21:28:33.536Z,99828.44
2022-10-30T21:31:37.889Z,99832.63
2022-10-30T21:34:42.200Z,99830.72
2022-10-30T21:37:48.029Z,99825.75
2022-10-30T21:40:57.202Z,99832.00
2022-10-30T21:44:02.491Z,99824.00
2022-10-30T21:47:06.623Z,99827.31
2022-10-30T21:50:12.678Z,99829.31
2022-10-30T21:53:18.688Z,99832.63
2022-10-30T21:56:24.495Z,99833.41
2022-10-30T21:59:28.739Z,99829.97
2022-10-30T22:02:33.111Z,99826.06
2022-10-30T22:05:37.349Z,99821.78
2022-10-30T22:08:43.117Z,99817.81
2022-10-30T22:11:47.272Z,99818.75
2022-10-30T22:14:51.560Z,99819.59
2022-10-30T22:17:55.718Z,99825.31
2022-10-30T22:21:03.663Z,99821.84
2022-10-30T22:24:10.003Z,99816.38
2022-10-30T22:27:14.389Z,99823.75
2022-10-30T22:30:18.729Z,99817.00
2022-10-30T22:33:23.498Z,99814.22
2022-10-30T22:36:30.161Z,99818.03
2022-10-30T22:39:35.677Z,99804.22
2022-10-30T22:42:39.906Z,99810.97
2022-10-30T22:45:43.921Z,99812.03
2022-10-30T22:48:48.293Z,99815.31
2022-10-30T22:51:52.308Z,99814.16
2022-10-30T22:54:57.907Z,99802.75
2022-10-30T22:58:02.427Z,99807.06
2022-10-30T23:01:12.194Z,99807.13
2022-10-30T23:04:16.786Z,99804.91
2022-10-30T23:07:30.164Z,99795.41
2022-10-30T23:10:48.567Z,99793.72
2022-10-30T23:14:03.743Z,99781.41
2022-10-30T23:17:18.471Z,99794.28
2022-10-30T23:20:29.314Z,99799.25
2022-10-30T23:23:44.026Z,99794.41
2022-10-30T23:27:01.864Z,99793.91
2022-10-30T23:30:17.885Z,99796.44
2022-10-30T23:33:32.781Z,99790.81
2022-10-30T23:36:46.114Z,99796.50
2022-10-30T23:39:53.726Z,99799.03
2022-10-30T23:43:10.420Z,99793.22
2022-10-30T23:46:23.567Z,99795.22
2022-10-30T23:49:34.539Z,99797.56
2022-10-30T23:52:44.544Z,99809.59
2022-10-30T23:56:00.032Z,99810.56
2022-10-30T23:59:17.414Z,99807.31
